Agate Beach, Oregon
Current Conditions -  °F | °C
As of 5:55 PM on Thursday 20 Nov 2014 (Local Time) from KONP Reporting Station
Broken Clouds Broken Clouds  
Wind Chill: 52°   Ceiling: 3100
Heat Index: 52°   Visibility: 10mi
Dew Point: 50°   Wind: 5mph
Humidity: 94%   Direction: 110°ESE
Pressure: 29.97"   Gusts: NA
Location:  44.6805°N, 124.021°W
Report Text: KONP 210155Z AUTO 11004KT 10SM BKN031 BKN047 11/10 A2997 RMK AO2
Loading
Personal Weather Stations






























Interactive Weather Map New forecast layout! Learn more

10-Day Weather Forecast

Advertisements
Track Severe Weather on mobile